sensor_id;sensor_type;location;lat;lon;timestamp;pressure;altitude;pressure_sealevel;temperature;humidity
44138;BME280;29800;55.942;37.314;2023-04-20T00:01:15;100222.56;;;7.06;43.78
44138;BME280;29800;55.942;37.314;2023-04-20T00:03:42;100219.22;;;7.04;43.68
44138;BME280;29800;55.942;37.314;2023-04-20T00:06:08;100221.09;;;7.03;43.86
44138;BME280;29800;55.942;37.314;2023-04-20T00:08:35;100210.41;;;7.02;44.41
44138;BME280;29800;55.942;37.314;2023-04-20T00:11:01;100218.78;;;7.00;44.45
44138;BME280;29800;55.942;37.314;2023-04-20T00:13:34;100214.00;;;7.02;44.82
44138;BME280;29800;55.942;37.314;2023-04-20T00:16:01;100215.47;;;6.98;44.52
44138;BME280;29800;55.942;37.314;2023-04-20T00:18:28;100213.59;;;6.92;44.12
44138;BME280;29800;55.942;37.314;2023-04-20T00:20:54;100208.16;;;6.92;45.01
44138;BME280;29800;55.942;37.314;2023-04-20T00:23:20;100214.69;;;6.84;45.00
44138;BME280;29800;55.942;37.314;2023-04-20T00:25:47;100219.72;;;6.80;45.70
44138;BME280;29800;55.942;37.314;2023-04-20T00:28:14;100209.06;;;6.72;45.91
44138;BME280;29800;55.942;37.314;2023-04-20T00:30:41;100209.69;;;6.68;46.46
44138;BME280;29800;55.942;37.314;2023-04-20T00:33:07;100214.75;;;6.64;46.42
44138;BME280;29800;55.942;37.314;2023-04-20T00:35:33;100209.06;;;6.59;46.59
44138;BME280;29800;55.942;37.314;2023-04-20T00:38:00;100211.19;;;6.57;46.46
44138;BME280;29800;55.942;37.314;2023-04-20T00:40:26;100212.00;;;6.57;46.70
44138;BME280;29800;55.942;37.314;2023-04-20T00:42:53;100206.59;;;6.51;46.69
44138;BME280;29800;55.942;37.314;2023-04-20T00:45:22;100207.25;;;6.46;47.05
44138;BME280;29800;55.942;37.314;2023-04-20T00:47:49;100206.38;;;6.46;47.27
44138;BME280;29800;55.942;37.314;2023-04-20T00:50:16;100202.44;;;6.41;47.43
44138;BME280;29800;55.942;37.314;2023-04-20T00:52:43;100206.00;;;6.35;47.61
44138;BME280;29800;55.942;37.314;2023-04-20T00:55:11;100203.28;;;6.35;47.51
44138;BME280;29800;55.942;37.314;2023-04-20T00:57:38;100197.44;;;6.32;47.74
44138;BME280;29800;55.942;37.314;2023-04-20T01:00:05;100197.84;;;6.29;47.98
44138;BME280;29800;55.942;37.314;2023-04-20T01:02:32;100197.44;;;6.25;48.42
44138;BME280;29800;55.942;37.314;2023-04-20T01:04:59;100191.78;;;6.20;47.93
44138;BME280;29800;55.942;37.314;2023-04-20T01:07:29;100191.16;;;6.18;47.91
44138;BME280;29800;55.942;37.314;2023-04-20T01:09:56;100191.16;;;6.18;47.81
44138;BME280;29800;55.942;37.314;2023-04-20T01:12:22;100187.41;;;6.19;48.14
44138;BME280;29800;55.942;37.314;2023-04-20T01:14:49;100182.16;;;6.24;46.84
44138;BME280;29800;55.942;37.314;2023-04-20T01:17:17;100189.47;;;6.30;46.35
44138;BME280;29800;55.942;37.314;2023-04-20T01:19:45;100182.56;;;6.34;46.02
44138;BME280;29800;55.942;37.314;2023-04-20T01:22:21;100175.25;;;6.41;45.89
44138;BME280;29800;55.942;37.314;2023-04-20T01:24:48;100179.00;;;6.40;46.20
44138;BME280;29800;55.942;37.314;2023-04-20T01:27:14;100173.56;;;6.40;46.45
44138;BME280;29800;55.942;37.314;2023-04-20T01:29:42;100172.31;;;6.36;46.62
44138;BME280;29800;55.942;37.314;2023-04-20T01:32:09;100174.00;;;6.31;47.42
44138;BME280;29800;55.942;37.314;2023-04-20T01:34:37;100166.88;;;6.23;47.65
44138;BME280;29800;55.942;37.314;2023-04-20T01:37:04;100173.81;;;6.19;48.20
44138;BME280;29800;55.942;37.314;2023-04-20T01:39:37;100166.06;;;6.16;48.66
44138;BME280;29800;55.942;37.314;2023-04-20T01:42:04;100163.97;;;6.04;47.78
44138;BME280;29800;55.942;37.314;2023-04-20T01:44:31;100164.81;;;6.05;47.91
44138;BME280;29800;55.942;37.314;2023-04-20T01:46:58;100162.31;;;6.03;47.90
44138;BME280;29800;55.942;37.314;2023-04-20T01:49:24;100160.84;;;6.01;47.93
44138;BME280;29800;55.942;37.314;2023-04-20T01:51:51;100161.28;;;5.98;48.64
44138;BME280;29800;55.942;37.314;2023-04-20T01:54:18;100159.16;;;5.93;49.14
44138;BME280;29800;55.942;37.314;2023-04-20T01:56:44;100158.72;;;5.89;48.62
44138;BME280;29800;55.942;37.314;2023-04-20T01:59:10;100155.59;;;5.86;49.18
44138;BME280;29800;55.942;37.314;2023-04-20T02:01:37;100159.78;;;5.82;48.88
44138;BME280;29800;55.942;37.314;2023-04-20T02:04:03;100156.84;;;5.77;49.07
44138;BME280;29800;55.942;37.314;2023-04-20T02:06:30;100155.81;;;5.71;49.76
44138;BME280;29800;55.942;37.314;2023-04-20T02:08:59;100159.16;;;5.66;49.76
44138;BME280;29800;55.942;37.314;2023-04-20T02:11:25;100149.09;;;5.60;49.79
44138;BME280;29800;55.942;37.314;2023-04-20T02:13:52;100148.91;;;5.55;50.44
44138;BME280;29800;55.942;37.314;2023-04-20T02:16:19;100151.00;;;5.53;50.54
44138;BME280;29800;55.942;37.314;2023-04-20T02:18:46;100143.06;;;5.51;50.29
44138;BME280;29800;55.942;37.314;2023-04-20T02:21:13;100145.75;;;5.51;50.24
44138;BME280;29800;55.942;37.314;2023-04-20T02:23:39;100144.50;;;5.54;50.17
44138;BME280;29800;55.942;37.314;2023-04-20T02:26:06;100143.06;;;5.58;49.66
44138;BME280;29800;55.942;37.314;2023-04-20T02:28:32;100143.88;;;5.59;50.16
44138;BME280;29800;55.942;37.314;2023-04-20T02:30:59;100141.38;;;5.57;50.22
44138;BME280;29800;55.942;37.314;2023-04-20T02:33:25;100146.19;;;5.55;50.91
44138;BME280;29800;55.942;37.314;2023-04-20T02:35:52;100144.94;;;5.51;50.62
44138;BME280;29800;55.942;37.314;2023-04-20T02:38:19;100142.63;;;5.48;51.10
44138;BME280;29800;55.942;37.314;2023-04-20T02:40:45;100150.31;;;5.44;51.35
44138;BME280;29800;55.942;37.314;2023-04-20T02:43:12;100147.84;;;5.43;50.93
44138;BME280;29800;55.942;37.314;2023-04-20T02:45:39;100145.13;;;5.43;50.77
44138;BME280;29800;55.942;37.314;2023-04-20T02:48:07;100140.94;;;5.47;50.35
44138;BME280;29800;55.942;37.314;2023-04-20T02:50:35;100149.31;;;5.52;50.28
44138;BME280;29800;55.942;37.314;2023-04-20T02:53:22;100134.91;;;5.58;50.80
44138;BME280;29800;55.942;37.314;2023-04-20T02:55:56;100135.72;;;5.59;50.40
44138;BME280;29800;55.942;37.314;2023-04-20T02:58:40;100136.78;;;5.58;50.98
44138;BME280;29800;55.942;37.314;2023-04-20T03:01:17;100139.50;;;5.51;51.92
44138;BME280;29800;55.942;37.314;2023-04-20T03:03:47;100137.81;;;5.43;51.91
44138;BME280;29800;55.942;37.314;2023-04-20T03:06:13;100143.44;;;5.42;51.67
44138;BME280;29800;55.942;37.314;2023-04-20T03:08:45;100135.94;;;5.44;51.65
44138;BME280;29800;55.942;37.314;2023-04-20T03:11:32;100131.78;;;5.55;50.94
44138;BME280;29800;55.942;37.314;2023-04-20T03:13:58;100135.13;;;5.63;50.84
44138;BME280;29800;55.942;37.314;2023-04-20T03:16:26;100129.69;;;5.70;51.63
44138;BME280;29800;55.942;37.314;2023-04-20T03:18:55;100138.44;;;5.79;51.33
44138;BME280;29800;55.942;37.314;2023-04-20T03:21:21;100133.88;;;5.86;51.02
44138;BME280;29800;55.942;37.314;2023-04-20T03:23:48;100138.88;;;5.96;50.14
44138;BME280;29800;55.942;37.314;2023-04-20T03:26:14;100131.38;;;6.04;50.22
44138;BME280;29800;55.942;37.314;2023-04-20T03:29:07;100125.28;;;6.16;49.92
44138;BME280;29800;55.942;37.314;2023-04-20T03:31:34;100132.81;;;6.27;49.60
44138;BME280;29800;55.942;37.314;2023-04-20T03:34:00;100126.72;;;6.38;49.05
44138;BME280;29800;55.942;37.314;2023-04-20T03:36:27;100120.84;;;6.48;48.80
44138;BME280;29800;55.942;37.314;2023-04-20T03:38:55;100125.41;;;6.61;48.26
44138;BME280;29800;55.942;37.314;2023-04-20T03:41:22;100119.50;;;6.71;48.08
44138;BME280;29800;55.942;37.314;2023-04-20T03:43:48;100124.03;;;6.84;47.66
44138;BME280;29800;55.942;37.314;2023-04-20T03:46:14;100116.66;;;6.97;47.15
44138;BME280;29800;55.942;37.314;2023-04-20T03:48:41;100111.34;;;7.09;47.08
44138;BME280;29800;55.942;37.314;2023-04-20T03:51:07;100116.72;;;7.23;46.95
44138;BME280;29800;55.942;37.314;2023-04-20T03:53:34;100122.94;;;7.36;46.67
44138;BME280;29800;55.942;37.314;2023-04-20T03:56:01;100116.94;;;7.53;46.58
44138;BME280;29800;55.942;37.314;2023-04-20T03:58:27;100114.78;;;7.62;46.43
44138;BME280;29800;55.942;37.314;2023-04-20T04:01:06;100116.34;;;7.76;45.67
44138;BME280;29800;55.942;37.314;2023-04-20T04:03:38;100117.28;;;7.88;45.76
44138;BME280;29800;55.942;37.314;2023-04-20T04:06:06;100114.88;;;7.99;45.11
44138;BME280;29800;55.942;37.314;2023-04-20T04:08:34;100113.75;;;8.06;45.12
44138;BME280;29800;55.942;37.314;2023-04-20T04:11:02;100118.25;;;8.19;45.12
44138;BME280;29800;55.942;37.314;2023-04-20T04:13:28;100116.44;;;8.32;44.41
44138;BME280;29800;55.942;37.314;2023-04-20T04:15:55;100108.56;;;8.42;44.26
44138;BME280;29800;55.942;37.314;2023-04-20T04:18:22;100111.63;;;8.52;44.30
44138;BME280;29800;55.942;37.314;2023-04-20T04:20:49;100108.72;;;8.65;43.98
44138;BME280;29800;55.942;37.314;2023-04-20T04:23:16;100105.25;;;8.77;44.35
44138;BME280;29800;55.942;37.314;2023-04-20T04:25:49;100111.59;;;8.89;43.64
44138;BME280;29800;55.942;37.314;2023-04-20T04:28:22;100107.66;;;9.04;43.87
44138;BME280;29800;55.942;37.314;2023-04-20T04:30:57;100102.59;;;9.19;43.99
44138;BME280;29800;55.942;37.314;2023-04-20T04:33:26;100110.00;;;9.30;43.04
44138;BME280;29800;55.942;37.314;2023-04-20T04:35:53;100101.47;;;9.38;42.96
44138;BME280;29800;55.942;37.314;2023-04-20T04:38:20;100103.88;;;9.59;42.73
44138;BME280;29800;55.942;37.314;2023-04-20T04:40:49;100102.84;;;9.71;42.45
44138;BME280;29800;55.942;37.314;2023-04-20T04:43:17;100098.19;;;9.84;42.45
44138;BME280;29800;55.942;37.314;2023-04-20T04:45:52;100100.97;;;9.96;42.12
44138;BME280;29800;55.942;37.314;2023-04-20T04:48:21;100100.97;;;10.07;42.35
44138;BME280;29800;55.942;37.314;2023-04-20T04:50:48;100101.78;;;10.20;41.93
44138;BME280;29800;55.942;37.314;2023-04-20T04:53:14;100097.63;;;10.41;43.30
44138;BME280;29800;55.942;37.314;2023-04-20T04:55:40;100096.78;;;10.52;42.02
44138;BME280;29800;55.942;37.314;2023-04-20T04:58:07;100091.25;;;10.64;41.91
44138;BME280;29800;55.942;37.314;2023-04-20T05:00:33;100091.00;;;10.77;41.06
44138;BME280;29800;55.942;37.314;2023-04-20T05:03:00;100097.03;;;10.91;41.29
44138;BME280;29800;55.942;37.314;2023-04-20T05:05:26;100094.81;;;11.05;41.21
44138;BME280;29800;55.942;37.314;2023-04-20T05:07:53;100093.44;;;11.19;40.91
44138;BME280;29800;55.942;37.314;2023-04-20T05:10:19;100082.19;;;11.33;40.69
44138;BME280;29800;55.942;37.314;2023-04-20T05:12:46;100079.97;;;11.47;40.60
44138;BME280;29800;55.942;37.314;2023-04-20T05:15:13;100088.59;;;11.55;40.52
44138;BME280;29800;55.942;37.314;2023-04-20T05:17:40;100081.16;;;11.68;40.69
44138;BME280;29800;55.942;37.314;2023-04-20T05:20:06;100077.56;;;11.84;39.80
44138;BME280;29800;55.942;37.314;2023-04-20T05:22:35;100067.94;;;11.99;39.58
44138;BME280;29800;55.942;37.314;2023-04-20T05:25:02;100085.94;;;12.11;39.83
44138;BME280;29800;55.942;37.314;2023-04-20T05:27:31;100070.22;;;12.24;39.80
44138;BME280;29800;55.942;37.314;2023-04-20T05:29:58;100082.00;;;12.41;39.46
44138;BME280;29800;55.942;37.314;2023-04-20T05:32:24;100073.94;;;12.57;38.68
44138;BME280;29800;55.942;37.314;2023-04-20T05:34:50;100074.19;;;12.77;38.56
44138;BME280;29800;55.942;37.314;2023-04-20T05:37:17;100068.94;;;12.98;39.70
44138;BME280;29800;55.942;37.314;2023-04-20T05:39:43;100072.00;;;13.01;38.31
44138;BME280;29800;55.942;37.314;2023-04-20T05:42:10;100066.34;;;13.13;38.09
44138;BME280;29800;55.942;37.314;2023-04-20T05:44:36;100067.06;;;13.31;37.97
44138;BME280;29800;55.942;37.314;2023-04-20T05:47:04;100063.44;;;13.52;38.97
44138;BME280;29800;55.942;37.314;2023-04-20T05:49:34;100061.97;;;13.72;38.09
44138;BME280;29800;55.942;37.314;2023-04-20T05:52:01;100064.03;;;13.92;38.43
44138;BME280;29800;55.942;37.314;2023-04-20T05:54:28;100062.44;;;14.01;36.84
44138;BME280;29800;55.942;37.314;2023-04-20T05:56:54;100069.16;;;14.15;36.42
44138;BME280;29800;55.942;37.314;2023-04-20T05:59:23;100068.66;;;14.24;36.15
44138;BME280;29800;55.942;37.314;2023-04-20T06:01:50;100064.25;;;14.28;35.96
44138;BME280;29800;55.942;37.314;2023-04-20T06:04:16;100058.81;;;14.38;35.46
44138;BME280;29800;55.942;37.314;2023-04-20T06:06:43;100059.41;;;14.45;35.36
44138;BME280;29800;55.942;37.314;2023-04-20T06:09:10;100059.22;;;14.62;34.85
44138;BME280;29800;55.942;37.314;2023-04-20T06:11:36;100061.72;;;14.69;34.90
44138;BME280;29800;55.942;37.314;2023-04-20T06:14:03;100056.81;;;14.81;34.36
44138;BME280;29800;55.942;37.314;2023-04-20T06:16:29;100050.53;;;14.96;33.96
44138;BME280;29800;55.942;37.314;2023-04-20T06:18:55;100058.00;;;15.11;33.46
44138;BME280;29800;55.942;37.314;2023-04-20T06:21:22;100054.75;;;15.35;33.55
44138;BME280;29800;55.942;37.314;2023-04-20T06:23:49;100050.84;;;15.46;32.65
44138;BME280;29800;55.942;37.314;2023-04-20T06:26:16;100055.84;;;15.59;32.29
44138;BME280;29800;55.942;37.314;2023-04-20T06:28:42;100053.63;;;15.72;32.22
44138;BME280;29800;55.942;37.314;2023-04-20T06:31:08;100050.91;;;15.77;31.88
44138;BME280;29800;55.942;37.314;2023-04-20T06:33:35;100055.84;;;15.85;31.78
44138;BME280;29800;55.942;37.314;2023-04-20T06:36:04;100041.78;;;16.02;36.15
44138;BME280;29800;55.942;37.314;2023-04-20T06:38:31;100048.06;;;16.13;32.54
44138;BME280;29800;55.942;37.314;2023-04-20T06:40:57;100041.44;;;16.19;31.76
44138;BME280;29800;55.942;37.314;2023-04-20T06:43:29;100039.78;;;16.28;31.54
44138;BME280;29800;55.942;37.314;2023-04-20T06:45:56;100043.28;;;16.44;32.95
44138;BME280;29800;55.942;37.314;2023-04-20T06:48:22;100039.09;;;16.57;31.25
44138;BME280;29800;55.942;37.314;2023-04-20T06:50:49;100037.63;;;16.75;31.19
44138;BME280;29800;55.942;37.314;2023-04-20T06:53:16;100029.88;;;16.87;31.00
44138;BME280;29800;55.942;37.314;2023-04-20T06:55:43;100033.34;;;17.03;31.39
44138;BME280;29800;55.942;37.314;2023-04-20T06:58:09;100041.03;;;17.12;30.27
44138;BME280;29800;55.942;37.314;2023-04-20T07:00:36;100031.00;;;17.26;30.95
44138;BME280;29800;55.942;37.314;2023-04-20T07:03:03;100033.00;;;17.55;29.87
44138;BME280;29800;55.942;37.314;2023-04-20T07:05:29;100026.91;;;17.58;30.47
44138;BME280;29800;55.942;37.314;2023-04-20T07:07:56;100027.13;;;17.61;29.12
44138;BME280;29800;55.942;37.314;2023-04-20T07:10:22;100028.13;;;17.76;29.13
44138;BME280;29800;55.942;37.314;2023-04-20T07:12:48;100018.34;;;17.83;28.83
44138;BME280;29800;55.942;37.314;2023-04-20T07:15:15;100019.97;;;17.90;28.41
44138;BME280;29800;55.942;37.314;2023-04-20T07:17:41;100013.69;;;18.08;28.21
44138;BME280;29800;55.942;37.314;2023-04-20T07:20:08;100016.06;;;18.20;28.79
44138;BME280;29800;55.942;37.314;2023-04-20T07:22:38;100013.19;;;18.30;27.80
44138;BME280;29800;55.942;37.314;2023-04-20T07:25:07;100019.16;;;18.37;27.28
44138;BME280;29800;55.942;37.314;2023-04-20T07:27:38;100011.69;;;18.38;26.92
44138;BME280;29800;55.942;37.314;2023-04-20T07:30:06;100010.72;;;18.48;27.16
44138;BME280;29800;55.942;37.314;2023-04-20T07:32:35;100005.88;;;18.59;26.35
44138;BME280;29800;55.942;37.314;2023-04-20T07:35:03;100000.59;;;18.81;26.90
44138;BME280;29800;55.942;37.314;2023-04-20T07:37:32;100006.16;;;19.00;26.33
44138;BME280;29800;55.942;37.314;2023-04-20T07:39:59;100005.50;;;19.27;26.42
44138;BME280;29800;55.942;37.314;2023-04-20T07:42:26;100009.22;;;19.37;25.63
44138;BME280;29800;55.942;37.314;2023-04-20T07:44:53;99998.69;;;19.53;24.97
44138;BME280;29800;55.942;37.314;2023-04-20T07:47:19;99988.63;;;19.76;26.53
44138;BME280;29800;55.942;37.314;2023-04-20T07:49:46;99987.81;;;19.89;24.81
44138;BME280;29800;55.942;37.314;2023-04-20T07:52:12;99984.31;;;19.97;24.34
44138;BME280;29800;55.942;37.314;2023-04-20T07:54:39;99993.56;;;20.07;22.57
44138;BME280;29800;55.942;37.314;2023-04-20T07:57:05;99976.50;;;19.99;24.28
44138;BME280;29800;55.942;37.314;2023-04-20T07:59:32;99983.78;;;19.81;23.80
44138;BME280;29800;55.942;37.314;2023-04-20T08:02:00;99983.97;;;19.52;23.34
44138;BME280;29800;55.942;37.314;2023-04-20T08:04:27;99984.78;;;19.39;24.46
44138;BME280;29800;55.942;37.314;2023-04-20T08:06:56;99981.59;;;19.45;23.77
44138;BME280;29800;55.942;37.314;2023-04-20T08:09:23;99975.94;;;19.37;24.54
44138;BME280;29800;55.942;37.314;2023-04-20T08:11:51;99970.84;;;19.25;24.23
44138;BME280;29800;55.942;37.314;2023-04-20T08:14:17;99977.41;;;19.15;24.01
44138;BME280;29800;55.942;37.314;2023-04-20T08:16:44;99976.84;;;19.13;24.33
44138;BME280;29800;55.942;37.314;2023-04-20T08:19:10;99977.84;;;19.03;24.84
44138;BME280;29800;55.942;37.314;2023-04-20T08:21:37;99974.50;;;18.87;23.92
44138;BME280;29800;55.942;37.314;2023-04-20T08:24:05;99972.22;;;18.89;25.75
44138;BME280;29800;55.942;37.314;2023-04-20T08:26:32;99973.69;;;18.82;23.04
44138;BME280;29800;55.942;37.314;2023-04-20T08:28:59;99981.03;;;18.72;24.47
44138;BME280;29800;55.942;37.314;2023-04-20T08:31:26;99971.44;;;18.65;24.40
44138;BME280;29800;55.942;37.314;2023-04-20T08:33:53;99976.22;;;18.59;26.20
44138;BME280;29800;55.942;37.314;2023-04-20T08:36:19;99972.25;;;18.46;25.03
44138;BME280;29800;55.942;37.314;2023-04-20T08:39:03;99969.47;;;18.46;25.82
44138;BME280;29800;55.942;37.314;2023-04-20T08:41:30;99972.28;;;18.41;27.86
44138;BME280;29800;55.942;37.314;2023-04-20T08:43:57;99975.50;;;18.29;26.29
44138;BME280;29800;55.942;37.314;2023-04-20T08:46:23;99968.97;;;18.20;26.47
44138;BME280;29800;55.942;37.314;2023-04-20T08:48:52;99970.75;;;18.11;26.78
44138;BME280;29800;55.942;37.314;2023-04-20T08:51:21;99967.25;;;18.00;27.51
44138;BME280;29800;55.942;37.314;2023-04-20T08:53:48;99970.09;;;17.95;27.90
44138;BME280;29800;55.942;37.314;2023-04-20T08:56:15;99960.09;;;17.99;27.21
44138;BME280;29800;55.942;37.314;2023-04-20T08:58:41;99966.44;;;17.99;26.60
44138;BME280;29800;55.942;37.314;2023-04-20T09:01:09;99968.31;;;18.04;26.69
44138;BME280;29800;55.942;37.314;2023-04-20T09:03:38;99955.28;;;18.29;26.97
44138;BME280;29800;55.942;37.314;2023-04-20T09:06:14;99953.00;;;18.74;27.61
44138;BME280;29800;55.942;37.314;2023-04-20T09:08:41;99949.44;;;18.92;26.63
44138;BME280;29800;55.942;37.314;2023-04-20T09:11:25;99957.09;;;19.01;25.95
44138;BME280;29800;55.942;37.314;2023-04-20T09:14:06;99952.44;;;19.15;25.56
44138;BME280;29800;55.942;37.314;2023-04-20T09:16:35;99948.28;;;19.13;25.12
44138;BME280;29800;55.942;37.314;2023-04-20T09:19:04;99947.31;;;19.22;24.98
44138;BME280;29800;55.942;37.314;2023-04-20T09:21:31;99945.94;;;19.20;25.08
44138;BME280;29800;55.942;37.314;2023-04-20T09:24:03;99946.78;;;19.20;24.10
44138;BME280;29800;55.942;37.314;2023-04-20T09:26:34;99946.44;;;19.08;23.81
44138;BME280;29800;55.942;37.314;2023-04-20T09:29:02;99949.06;;;18.99;24.13
44138;BME280;29800;55.942;37.314;2023-04-20T09:31:29;99935.66;;;18.87;24.26
44138;BME280;29800;55.942;37.314;2023-04-20T09:33:57;99945.69;;;18.83;24.89
44138;BME280;29800;55.942;37.314;2023-04-20T09:36:33;99942.94;;;18.83;24.01
44138;BME280;29800;55.942;37.314;2023-04-20T09:39:12;99939.78;;;18.90;23.71
44138;BME280;29800;55.942;37.314;2023-04-20T09:41:40;99943.91;;;18.92;23.42
44138;BME280;29800;55.942;37.314;2023-04-20T09:44:08;99941.47;;;19.05;24.39
44138;BME280;29800;55.942;37.314;2023-04-20T09:46:37;99937.28;;;19.07;23.86
44138;BME280;29800;55.942;37.314;2023-04-20T09:49:09;99937.41;;;19.16;23.09
44138;BME280;29800;55.942;37.314;2023-04-20T09:51:38;99937.69;;;19.34;22.61
44138;BME280;29800;55.942;37.314;2023-04-20T09:54:07;99934.94;;;19.47;23.09
44138;BME280;29800;55.942;37.314;2023-04-20T09:56:34;99932.81;;;19.58;23.24
44138;BME280;29800;55.942;37.314;2023-04-20T09:59:01;99923.25;;;19.64;22.21
44138;BME280;29800;55.942;37.314;2023-04-20T10:01:30;99917.84;;;19.87;24.26
44138;BME280;29800;55.942;37.314;2023-04-20T10:04:01;99928.44;;;20.27;23.63
44138;BME280;29800;55.942;37.314;2023-04-20T10:06:32;99924.31;;;20.24;22.50
44138;BME280;29800;55.942;37.314;2023-04-20T10:09:04;99925.56;;;20.18;22.33
44138;BME280;29800;55.942;37.314;2023-04-20T10:11:38;99917.84;;;20.01;22.45
44138;BME280;29800;55.942;37.314;2023-04-20T10:14:17;99911.78;;;19.85;22.46
44138;BME280;29800;55.942;37.314;2023-04-20T10:16:56;99915.53;;;19.61;22.29
44138;BME280;29800;55.942;37.314;2023-04-20T10:19:23;99909.13;;;19.47;22.43
44138;BME280;29800;55.942;37.314;2023-04-20T10:21:50;99910.25;;;19.46;22.99
44138;BME280;29800;55.942;37.314;2023-04-20T10:24:29;99906.97;;;19.44;23.78
44138;BME280;29800;55.942;37.314;2023-04-20T10:26:57;99909.19;;;19.28;23.81
44138;BME280;29800;55.942;37.314;2023-04-20T10:29:24;99902.16;;;19.17;23.50
44138;BME280;29800;55.942;37.314;2023-04-20T10:31:52;99901.84;;;19.04;24.22
44138;BME280;29800;55.942;37.314;2023-04-20T10:34:48;99903.91;;;19.13;24.86
44138;BME280;29800;55.942;37.314;2023-04-20T10:37:25;99898.38;;;18.94;24.24
44138;BME280;29800;55.942;37.314;2023-04-20T10:39:51;99900.13;;;18.89;23.88
44138;BME280;29800;55.942;37.314;2023-04-20T10:42:18;99897.44;;;18.84;24.82
44138;BME280;29800;55.942;37.314;2023-04-20T10:44:51;99896.84;;;18.87;26.32
44138;BME280;29800;55.942;37.314;2023-04-20T10:47:29;99897.84;;;19.10;24.74
44138;BME280;29800;55.942;37.314;2023-04-20T10:50:09;99904.19;;;19.44;25.49
44138;BME280;29800;55.942;37.314;2023-04-20T10:52:39;99887.56;;;19.72;24.85
44138;BME280;29800;55.942;37.314;2023-04-20T10:57:46;99888.09;;;20.29;24.49
44138;BME280;29800;55.942;37.314;2023-04-20T11:00:17;99882.69;;;20.47;25.09
44138;BME280;29800;55.942;37.314;2023-04-20T11:02:52;99884.28;;;20.75;24.09
44138;BME280;29800;55.942;37.314;2023-04-20T11:05:20;99874.06;;;20.85;22.33
44138;BME280;29800;55.942;37.314;2023-04-20T11:07:58;99873.41;;;20.88;22.76
44138;BME280;29800;55.942;37.314;2023-04-20T11:10:41;99864.63;;;20.95;22.66
44138;BME280;29800;55.942;37.314;2023-04-20T11:13:21;99878.47;;;21.08;23.75
44138;BME280;29800;55.942;37.314;2023-04-20T11:15:48;99867.44;;;21.26;22.29
44138;BME280;29800;55.942;37.314;2023-04-20T11:18:14;99865.41;;;21.40;26.08
44138;BME280;29800;55.942;37.314;2023-04-20T11:20:58;99864.22;;;21.64;23.30
44138;BME280;29800;55.942;37.314;2023-04-20T11:23:36;99856.34;;;21.66;22.29
44138;BME280;29800;55.942;37.314;2023-04-20T11:26:03;99858.78;;;21.59;22.94
44138;BME280;29800;55.942;37.314;2023-04-20T11:28:29;99855.78;;;21.46;23.03
44138;BME280;29800;55.942;37.314;2023-04-20T11:30:59;99863.28;;;21.15;23.63
44138;BME280;29800;55.942;37.314;2023-04-20T11:33:30;99850.97;;;20.84;22.44
44138;BME280;29800;55.942;37.314;2023-04-20T11:35:57;99849.28;;;20.74;21.87
44138;BME280;29800;55.942;37.314;2023-04-20T11:38:31;99850.53;;;20.68;22.99
44138;BME280;29800;55.942;37.314;2023-04-20T11:40:58;99844.34;;;20.71;23.50
44138;BME280;29800;55.942;37.314;2023-04-20T11:43:34;99841.31;;;20.82;22.89
44138;BME280;29800;55.942;37.314;2023-04-20T11:46:01;99835.09;;;20.85;23.44
44138;BME280;29800;55.942;37.314;2023-04-20T11:48:30;99840.66;;;20.85;21.40
44138;BME280;29800;55.942;37.314;2023-04-20T11:50:57;99835.06;;;20.76;21.40
44138;BME280;29800;55.942;37.314;2023-04-20T11:53:24;99827.41;;;20.82;21.26
44138;BME280;29800;55.942;37.314;2023-04-20T11:55:50;99824.13;;;20.80;21.03
44138;BME280;29800;55.942;37.314;2023-04-20T11:58:17;99821.25;;;20.71;22.78
44138;BME280;29800;55.942;37.314;2023-04-20T12:00:43;99816.22;;;20.73;21.51
44138;BME280;29800;55.942;37.314;2023-04-20T12:03:10;99812.59;;;20.72;21.18
44138;BME280;29800;55.942;37.314;2023-04-20T12:05:36;99812.09;;;20.70;22.23
44138;BME280;29800;55.942;37.314;2023-04-20T12:08:03;99814.56;;;20.72;20.27
44138;BME280;29800;55.942;37.314;2023-04-20T12:10:29;99810.03;;;20.62;19.96
44138;BME280;29800;55.942;37.314;2023-04-20T12:12:56;99806.59;;;20.56;19.88
44138;BME280;29800;55.942;37.314;2023-04-20T12:15:23;99798.91;;;20.62;20.69
44138;BME280;29800;55.942;37.314;2023-04-20T12:17:49;99795.03;;;20.63;21.56
44138;BME280;29800;55.942;37.314;2023-04-20T12:20:16;99792.38;;;20.58;22.17
44138;BME280;29800;55.942;37.314;2023-04-20T12:22:42;99794.53;;;20.61;22.00
44138;BME280;29800;55.942;37.314;2023-04-20T12:25:09;99793.31;;;20.53;22.04
44138;BME280;29800;55.942;37.314;2023-04-20T12:27:35;99789.44;;;20.41;23.90
44138;BME280;29800;55.942;37.314;2023-04-20T12:30:02;99793.47;;;20.34;22.36
44138;BME280;29800;55.942;37.314;2023-04-20T12:32:32;99788.16;;;20.24;22.36
44138;BME280;29800;55.942;37.314;2023-04-20T12:34:58;99779.81;;;20.24;22.57
44138;BME280;29800;55.942;37.314;2023-04-20T12:37:25;99784.03;;;20.22;22.76
44138;BME280;29800;55.942;37.314;2023-04-20T12:39:52;99777.78;;;20.16;22.57
44138;BME280;29800;55.942;37.314;2023-04-20T12:42:18;99771.94;;;20.04;22.89
44138;BME280;29800;55.942;37.314;2023-04-20T12:44:45;99768.91;;;19.91;23.17
44138;BME280;29800;55.942;37.314;2023-04-20T12:47:11;99764.28;;;19.73;22.75
44138;BME280;29800;55.942;37.314;2023-04-20T12:49:38;99761.59;;;19.68;25.70
44138;BME280;29800;55.942;37.314;2023-04-20T12:52:05;99765.22;;;19.54;23.00
44138;BME280;29800;55.942;37.314;2023-04-20T12:54:32;99761.53;;;19.45;23.09
44138;BME280;29800;55.942;37.314;2023-04-20T12:56:58;99758.03;;;19.39;22.83